createdAt,value
2022-11-02T08:32:03.185Z,73.43
2022-11-02T08:34:31.621Z,65.10
2022-11-02T08:36:59.723Z,63.63
2022-11-02T08:39:28.173Z,75.10
2022-11-02T08:41:56.253Z,76.22
2022-11-02T08:44:24.655Z,74.38
2022-11-02T08:49:26.064Z,69.95
2022-11-02T08:51:54.161Z,69.43
2022-11-02T08:54:23.084Z,79.43
2022-11-02T08:56:51.180Z,70.80
2022-11-02T08:59:19.659Z,64.97
2022-11-02T09:01:47.899Z,72.22
2022-11-02T09:04:16.604Z,63.00
2022-11-02T09:06:44.700Z,64.15
2022-11-02T09:09:13.130Z,65.07
2022-11-02T09:11:41.248Z,68.68
2022-11-02T09:14:09.816Z,61.85
2022-11-02T09:16:41.356Z,61.92
2022-11-02T09:19:10.110Z,63.90
2022-11-02T09:21:38.346Z,57.72
2022-11-02T09:24:07.145Z,56.70
2022-11-02T09:26:35.246Z,57.05
2022-11-02T09:29:03.741Z,65.45
2022-11-02T09:31:31.837Z,53.30
2022-11-02T09:34:00.315Z,57.47
2022-11-02T09:36:28.404Z,53.05
2022-11-02T09:38:56.856Z,55.75
2022-11-02T09:41:34.794Z,49.38
2022-11-02T09:44:18.812Z,54.00
2022-11-02T09:46:53.833Z,56.92
2022-11-02T09:49:36.824Z,51.30
2022-11-02T09:52:07.585Z,62.25
2022-11-02T09:54:45.633Z,60.28
2022-11-02T09:57:37.612Z,55.95
2022-11-02T10:00:06.557Z,64.93
2022-11-02T10:02:55.790Z,55.30
2022-11-02T10:05:43.384Z,70.35
2022-11-02T10:08:18.687Z,56.00
2022-11-02T10:11:08.796Z,60.55
2022-11-02T10:13:54.196Z,64.00
2022-11-02T10:16:33.749Z,59.80
2022-11-02T10:19:04.853Z,61.72
2022-11-02T10:21:34.522Z,52.40
2022-11-02T10:24:25.656Z,64.95
2022-11-02T10:26:58.713Z,57.90
2022-11-02T10:29:46.986Z,65.25
2022-11-02T10:32:16.008Z,63.72
2022-11-02T10:34:50.470Z,62.90
2022-11-02T10:37:41.332Z,54.85
2022-11-02T10:40:28.301Z,55.67
2022-11-02T10:43:06.100Z,59.25
2022-11-02T10:45:59.569Z,62.80
2022-11-02T10:48:41.881Z,62.80
2022-11-02T10:51:12.800Z,51.53
2022-11-02T10:56:33.368Z,51.67
2022-11-02T10:59:23.784Z,48.97
2022-11-02T11:01:51.924Z,50.65
2022-11-02T11:04:26.693Z,43.85
2022-11-02T11:06:56.853Z,44.05
2022-11-02T11:09:26.301Z,40.90
2022-11-02T11:12:02.058Z,48.95
2022-11-02T11:20:40.488Z,42.35
2022-11-02T11:23:23.418Z,42.10
2022-11-02T11:25:55.997Z,41.38
2022-11-02T11:28:37.212Z,38.85
2022-11-02T11:31:16.665Z,46.63
2022-11-02T11:33:56.233Z,40.20
2022-11-02T11:36:33.237Z,37.35
2022-11-02T11:39:04.083Z,32.33
2022-11-02T11:41:34.476Z,36.38
2022-11-02T11:44:03.359Z,36.47
2022-11-02T11:46:49.556Z,30.00
2022-11-02T11:49:48.021Z,29.00
2022-11-02T11:52:29.979Z,35.97
2022-11-02T11:55:19.626Z,36.42
2022-11-02T11:57:48.218Z,39.72
2022-11-02T12:00:28.021Z,40.67
2022-11-02T12:03:08.312Z,34.55
2022-11-02T12:05:55.766Z,33.45
2022-11-02T12:08:42.495Z,40.50
2022-11-02T12:11:19.008Z,33.03
2022-11-02T12:14:06.430Z,35.28
2022-11-02T12:17:08.021Z,35.50
2022-11-02T12:19:42.367Z,36.70
2022-11-02T12:22:54.829Z,32.75
2022-11-02T12:25:41.119Z,29.13
2022-11-02T12:28:45.876Z,33.35
2022-11-02T12:31:36.965Z,30.77
2022-11-02T12:34:52.921Z,34.30
2022-11-02T12:37:54.016Z,25.27
2022-11-02T12:40:39.516Z,29.15
2022-11-02T12:43:26.530Z,30.88
2022-11-02T12:45:57.688Z,28.52
2022-11-02T12:48:42.660Z,29.00
2022-11-02T12:51:17.879Z,27.08
2022-11-02T12:53:59.827Z,28.63
2022-11-02T12:56:47.405Z,22.92
2022-11-02T12:59:36.088Z,31.77
2022-11-02T13:02:24.666Z,27.63
2022-11-02T13:05:09.652Z,30.77
2022-11-02T13:07:59.547Z,24.48
2022-11-02T13:10:31.308Z,21.00
2022-11-02T13:13:01.980Z,34.85
2022-11-02T13:18:20.911Z,25.00
2022-11-02T13:20:50.786Z,30.80
2022-11-02T13:23:43.496Z,44.25
2022-11-02T13:26:19.322Z,31.17
2022-11-02T13:28:55.195Z,33.83
2022-11-02T13:31:56.995Z,28.35
2022-11-02T13:34:46.022Z,33.53
2022-11-02T13:37:17.883Z,35.33
2022-11-02T13:39:50.867Z,27.38
2022-11-02T13:42:31.663Z,25.85
2022-11-02T13:45:23.540Z,28.77
2022-11-02T13:48:08.695Z,28.20
2022-11-02T13:50:42.996Z,28.38
2022-11-02T13:53:23.875Z,28.23
2022-11-02T13:56:28.591Z,29.23
2022-11-02T13:59:02.994Z,28.02
2022-11-02T14:01:33.316Z,22.85
2022-11-02T14:04:08.840Z,36.20
2022-11-02T14:06:54.641Z,28.08
2022-11-02T14:09:40.017Z,28.50
2022-11-02T14:12:27.734Z,26.48
2022-11-02T14:15:14.440Z,33.58
2022-11-02T14:18:02.151Z,28.88
2022-11-02T14:20:46.910Z,29.42
2022-11-02T14:23:14.980Z,35.35
2022-11-02T14:25:50.141Z,34.72
2022-11-02T14:28:21.029Z,33.08
2022-11-02T14:33:29.980Z,35.63
2022-11-02T14:36:16.153Z,42.63
2022-11-02T14:41:48.015Z,36.40
2022-11-02T14:44:36.363Z,43.05
2022-11-02T14:47:10.397Z,45.10
2022-11-02T14:49:45.754Z,40.55
2022-11-02T14:52:22.904Z,39.72
2022-11-02T14:54:53.978Z,42.80
2022-11-02T14:59:57.102Z,38.33
2022-11-02T15:02:31.496Z,44.47
2022-11-02T15:05:01.101Z,45.38
2022-11-02T15:07:42.761Z,45.50
2022-11-02T15:10:16.936Z,48.55
2022-11-02T15:12:47.351Z,42.40
2022-11-02T15:15:35.425Z,50.42
2022-11-02T15:18:25.191Z,45.80
2022-11-02T15:21:11.738Z,38.78
2022-11-02T15:24:04.951Z,47.80
2022-11-02T15:26:48.373Z,55.53
2022-11-02T15:29:27.429Z,50.30
2022-11-02T15:31:58.191Z,52.78
2022-11-02T15:34:42.746Z,46.97
2022-11-02T15:37:22.747Z,51.38
2022-11-02T15:39:59.786Z,53.83
2022-11-02T15:42:33.834Z,57.28
2022-11-02T15:45:34.189Z,50.95
2022-11-02T15:48:30.600Z,56.35
2022-11-02T15:51:02.092Z,62.08
2022-11-02T15:53:42.507Z,54.22
2022-11-02T15:56:13.905Z,58.15
2022-11-02T15:59:05.241Z,63.25
2022-11-02T16:04:07.207Z,64.45
2022-11-02T16:06:39.812Z,60.20
2022-11-02T16:09:36.591Z,65.78
2022-11-02T16:12:19.516Z,69.80
2022-11-02T16:14:53.652Z,68.40
2022-11-02T16:17:26.249Z,67.82
2022-11-02T16:20:15.925Z,72.45
2022-11-02T16:22:53.620Z,96.68
2022-11-02T16:25:33.777Z,94.80
2022-11-02T16:28:22.656Z,92.25
2022-11-02T16:31:21.902Z,75.10
2022-11-02T16:33:54.391Z,71.07
2022-11-02T16:36:27.219Z,68.78
2022-11-02T16:39:27.305Z,74.80
2022-11-02T16:41:58.267Z,67.13
2022-11-02T16:44:27.572Z,79.38
2022-11-02T16:47:16.023Z,66.55
2022-11-02T16:49:53.189Z,69.28
2022-11-02T16:52:25.853Z,67.40
2022-11-02T16:54:54.280Z,68.53
2022-11-02T16:57:26.557Z,64.53
2022-11-02T16:59:56.101Z,62.20
2022-11-02T17:02:37.220Z,63.70
2022-11-02T17:08:09.562Z,66.18
2022-11-02T17:10:38.972Z,68.28
2022-11-02T17:13:21.324Z,61.08
2022-11-02T17:15:51.602Z,68.53
2022-11-02T17:18:22.778Z,56.25
2022-11-02T17:21:13.220Z,55.85
2022-11-02T17:23:46.334Z,56.28
2022-11-02T17:26:24.875Z,49.85
2022-11-02T17:28:56.895Z,58.95
2022-11-02T17:31:36.276Z,58.30
2022-11-02T17:34:31.792Z,57.88
2022-11-02T17:37:00.283Z,61.53
2022-11-02T17:39:28.447Z,48.75
2022-11-02T17:42:16.363Z,51.92
2022-11-02T17:44:47.833Z,58.67
2022-11-02T17:47:18.487Z,49.95
2022-11-02T17:49:46.650Z,53.45
2022-11-02T17:52:16.603Z,62.30
2022-11-02T17:54:44.708Z,47.67
2022-11-02T17:57:14.957Z,36.95
2022-11-02T17:59:43.185Z,46.38
2022-11-02T18:02:15.657Z,50.95
2022-11-02T18:07:17.498Z,34.83
2022-11-02T18:09:45.609Z,30.50
2022-11-02T18:12:15.049Z,29.15
2022-11-02T18:14:43.286Z,28.58
2022-11-02T18:17:11.738Z,26.90
2022-11-02T18:19:39.803Z,26.13
2022-11-02T18:22:10.161Z,27.92
2022-11-02T18:24:38.289Z,28.45
2022-11-02T18:27:06.951Z,31.20
2022-11-02T18:29:35.022Z,26.27
2022-11-02T18:32:03.487Z,21.48
2022-11-02T18:34:31.593Z,23.00
2022-11-02T18:37:00.266Z,27.08
2022-11-02T18:39:28.416Z,34.20
2022-11-02T18:41:56.888Z,24.25
2022-11-02T18:44:25.049Z,28.00
2022-11-02T18:46:53.578Z,24.67
2022-11-02T18:49:21.688Z,30.60
2022-11-02T18:51:50.205Z,19.63
2022-11-02T18:54:18.336Z,23.42
2022-11-02T18:56:47.132Z,22.15
2022-11-02T18:59:15.249Z,23.63
2022-11-02T19:01:43.854Z,26.75
2022-11-02T19:04:17.164Z,22.98
2022-11-02T19:07:04.898Z,29.42
2022-11-02T19:09:33.625Z,23.27
2022-11-02T19:12:06.176Z,31.75
2022-11-02T19:14:39.405Z,29.67
2022-11-02T19:17:09.171Z,23.27
2022-11-02T19:19:38.360Z,26.52
2022-11-02T19:22:06.953Z,30.70
2022-11-02T19:24:35.060Z,20.20
2022-11-02T19:27:03.464Z,28.50
2022-11-02T19:29:31.620Z,27.33
2022-11-02T19:32:00.260Z,26.77
2022-11-02T19:34:28.497Z,26.90
2022-11-02T19:36:57.060Z,23.63
2022-11-02T19:39:25.304Z,22.88
2022-11-02T19:41:54.483Z,37.05
2022-11-02T19:44:22.677Z,41.85
2022-11-02T19:46:51.513Z,24.55
2022-11-02T19:49:19.673Z,24.48
2022-11-02T19:51:48.283Z,31.73
2022-11-02T19:54:16.396Z,34.10
2022-11-02T19:56:44.956Z,29.42
2022-11-02T19:59:13.498Z,34.75
2022-11-02T20:01:42.985Z,29.98
2022-11-02T20:04:11.174Z,31.30
2022-11-02T20:06:41.587Z,28.83
2022-11-02T20:09:15.612Z,35.17
2022-11-02T20:11:47.191Z,34.83
2022-11-02T20:14:16.733Z,36.38
2022-11-02T20:16:58.007Z,32.60
2022-11-02T20:19:27.054Z,28.40
2022-11-02T20:21:55.542Z,32.22
2022-11-02T20:24:23.744Z,26.02
2022-11-02T20:27:02.755Z,33.03
2022-11-02T20:29:30.982Z,26.67
2022-11-02T20:31:59.505Z,27.45
2022-11-02T20:34:27.957Z,36.10
2022-11-02T20:36:56.480Z,29.02
2022-11-02T20:39:24.714Z,33.47
2022-11-02T20:41:56.003Z,26.08
2022-11-02T20:44:24.313Z,34.72
2022-11-02T20:46:53.536Z,35.08
2022-11-02T20:49:44.321Z,28.80
2022-11-02T20:52:11.341Z,32.67
2022-11-02T20:54:39.470Z,27.55
2022-11-02T20:57:07.973Z,31.15
2022-11-02T20:59:36.106Z,25.38
2022-11-02T21:02:04.772Z,32.95
2022-11-02T21:04:33.028Z,32.10
2022-11-02T21:07:01.557Z,27.55
2022-11-02T21:09:30.709Z,35.50
2022-11-02T21:12:17.611Z,33.42
2022-11-02T21:14:45.778Z,34.50
2022-11-02T21:17:14.229Z,29.27
2022-11-02T21:19:42.361Z,32.50
2022-11-02T21:22:10.876Z,30.70
2022-11-02T21:24:39.021Z,27.42
2022-11-02T21:27:07.476Z,27.23
2022-11-02T21:29:35.572Z,39.22
2022-11-02T21:32:04.184Z,31.35
2022-11-02T21:34:32.278Z,26.98
2022-11-02T21:37:03.180Z,30.00
2022-11-02T21:39:31.359Z,34.35
2022-11-02T21:42:00.143Z,41.17
2022-11-02T21:44:29.001Z,36.00
2022-11-02T21:46:58.016Z,36.50
2022-11-02T21:49:26.187Z,30.27
2022-11-02T21:51:54.673Z,34.97
2022-11-02T21:54:22.773Z,26.45
2022-11-02T21:56:51.697Z,30.83
2022-11-02T21:59:19.795Z,28.85
2022-11-02T22:01:50.233Z,25.67
2022-11-02T22:04:24.924Z,37.92
2022-11-02T22:06:54.121Z,35.65
2022-11-02T22:09:22.879Z,33.13
2022-11-02T22:12:11.700Z,33.97
2022-11-02T22:14:40.588Z,31.08
